Gladstone, NJ (07934)

11:09 AM EST on January 26, 2015 (GMT -0500)
KNJGLADS3 | Change Station
CLOSE
Current Station
Personal Weather Station
Location: Gladstone, NJ
Elevation: 312 ft
Nearby Weather Stations
Active Advisory: Winter Storm Warning Active Notice: Public Information Statement

Elev 312 ft 40.73 °N, 74.67 °W | Updated 14 minutes ago

Snow
Snow
20.2 °F
Feels Like 11 °F
N
7.0
Wind Variable Wind from ESE
Gusts 10.0 mph

Today
High -- | Low -- °F
--% Chance of Precip.
Yesterday
High -- | Low -- °F
Precip. -- in
7:14 AM 5:08 PM
Waxing Crescent, 44% visible
Pressure 29.94 in
Visibility 4.0 miles
Clouds Scattered Clouds 1800 ft
Mostly Cloudy 2400 ft
Overcast 4800 ft
Windchill 11 °F
Dew Point 17 °F
Humidity 87%
Rainfall 0.00 in
Snow Depth Not available.
UV 1 out of 12
Pollen .10 out of 12
Air Quality Not available.
Flu Activity Not available.
SPECI KSMQ 261601Z AUTO 06011G19KT 4SM HZ SCT018 BKN024 OVC048 M04/M09 A2994 RMK AO2 SNE1559 P0000 T10441089 TSNO

More Conditions Fewer Conditions

Pressure 29.94 in
Visibility 4.0 miles
Clouds Scattered Clouds 1800 ft
Mostly Cloudy 2400 ft
Overcast 4800 ft
Windchill 11 °F
Dew Point 17 °F
Humidity 87%
Rainfall 0.00 in
Snow Depth Not available.
UV 1 out of 12
Pollen .10 out of 12
Air Quality Not available.
Flu Activity Not available.
SPECI KSMQ 261601Z AUTO 06011G19KT 4SM HZ SCT018 BKN024 OVC048 M04/M09 A2994 RMK AO2 SNE1559 P0000 T10441089 TSNO

More Conditions Fewer Conditions

10-Day Weather Forecast

Almanac

Astronomy

Jan. 26, 2015 Rise Set
Actual Time
Civil Twilight
Nautical Twilight
Astronomical Twilight
Moon
Length of Visible Light
Length of Day
Tomorrow will be .
, % of the Moon is Illuminated

Today's Extremes

State Highs State Lows

Community

WunderPhotos

Upload Photos

1,790,258 photos uploaded!

WunderBlogs® & News

Nearby

Air Quality

  Air Quality AQ Index Pollutant
Not available.

Snow Depth

Station Depth Elevation

Earthquake Activity

City Distance Mag. Time & Date
Minimum magnitude displayed is 2.5.

Coastal Water Temperatures

Place Temperature

Nearby Weather Stations